Time;durP1;ratioP1;P1;durP2;ratioP2;P2;SDS_P1;SDS_P2;PMS_P1;PMS_P2;Temp;Humidity;BMP_temperature;BMP_pressure;BME280_temperature;BME280_humidity;BME280_pressure;Samples;Min_cycle;Max_cycle;Signal;HPM_P1;HPM_P2
2020/12/07 00:00:22;;;;;;;10.50;4.65;;;19.20;47.70;;;;;;1045357;28;20023;-73
2020/12/07 00:00:54;;;;;;;7.82;4.28;;;19.20;47.20;;;;;;1041076;28;20026;-74
2020/12/07 00:01:26;;;;;;;9.70;4.78;;;19.20;46.80;;;;;;1038733;28;20509;-73
2020/12/07 00:01:57;;;;;;;12.68;4.75;;;19.20;46.70;;;;;;1041193;28;20367;-73
2020/12/07 00:02:29;;;;;;;12.48;4.90;;;19.20;46.80;;;;;;1041157;28;20029;-73
2020/12/07 00:03:00;;;;;;;11.18;4.25;;;19.10;46.80;;;;;;1041125;28;20025;-74
2020/12/07 00:03:32;;;;;;;9.68;4.40;;;19.10;46.50;;;;;;1042166;28;20393;-73
2020/12/07 00:04:03;;;;;;;10.00;4.75;;;19.20;46.50;;;;;;1043348;28;20013;-73
2020/12/07 00:04:35;;;;;;;9.82;4.30;;;19.10;46.40;;;;;;1041180;28;20431;-73
2020/12/07 00:05:06;;;;;;;9.10;4.50;;;19.10;46.50;;;;;;1041217;28;20113;-74
2020/12/07 00:05:38;;;;;;;9.93;4.35;;;19.10;46.60;;;;;;1044667;28;20049;-72
2020/12/07 00:06:10;;;;;;;10.90;4.00;;;19.10;46.60;;;;;;1045269;28;20024;-73
2020/12/07 00:06:41;;;;;;;10.93;4.38;;;19.10;47.10;;;;;;1045224;28;20450;-74
2020/12/07 00:07:12;;;;;;;10.30;4.43;;;19.10;46.50;;;;;;1041552;28;20351;-73
2020/12/07 00:07:44;;;;;;;10.60;4.30;;;19.00;46.40;;;;;;1041006;28;20025;-74
2020/12/07 00:08:15;;;;;;;8.45;4.20;;;19.00;46.50;;;;;;1041106;28;20320;-74
2020/12/07 00:08:47;;;;;;;10.32;4.35;;;19.00;46.50;;;;;;1041719;28;20021;-73
2020/12/07 00:09:19;;;;;;;7.82;3.92;;;18.90;46.40;;;;;;1042896;28;20033;-73
2020/12/07 00:09:50;;;;;;;8.07;3.85;;;19.00;46.20;;;;;;1041328;28;20096;-73
2020/12/07 00:10:22;;;;;;;9.85;4.10;;;19.00;46.10;;;;;;1041316;28;20097;-72
2020/12/07 00:10:53;;;;;;;8.15;3.85;;;19.00;46.00;;;;;;1040981;28;20015;-73
2020/12/07 00:11:25;;;;;;;8.25;3.92;;;19.00;46.00;;;;;;1036890;28;20026;-73
2020/12/07 00:11:56;;;;;;;8.48;3.92;;;19.00;46.20;;;;;;1036998;28;20028;-73
2020/12/07 00:12:29;;;;;;;9.23;3.90;;;18.90;46.20;;;;;;1037408;28;20379;-74
2020/12/07 00:13:01;;;;;;;6.60;3.60;;;18.90;46.40;;;;;;1041118;28;20017;-73
2020/12/07 00:13:33;;;;;;;7.93;4.05;;;18.90;46.50;;;;;;1041031;28;20032;-74
2020/12/07 00:14:04;;;;;;;7.47;4.00;;;18.90;46.60;;;;;;1041115;28;20028;-74
2020/12/07 00:14:36;;;;;;;7.60;3.80;;;18.90;46.70;;;;;;1041320;28;20104;-73
2020/12/07 00:15:07;;;;;;;8.02;3.55;;;18.80;46.70;;;;;;1041419;28;20021;-75
2020/12/07 00:15:39;;;;;;;8.35;3.80;;;18.80;46.80;;;;;;1041288;28;20410;-72
2020/12/07 00:16:11;;;;;;;10.32;4.20;;;18.80;46.80;;;;;;1041018;28;20075;-73
2020/12/07 00:16:46;;;;;;;8.75;3.90;;;18.80;46.70;;;;;;1040560;28;20033;-73
2020/12/07 00:17:22;;;;;;;8.63;3.95;;;18.70;46.60;;;;;;1042776;28;20050;-73
2020/12/07 00:17:54;;;;;;;8.35;4.20;;;18.70;46.60;;;;;;1045416;28;20328;-74
2020/12/07 00:18:25;;;;;;;7.63;3.60;;;18.70;46.60;;;;;;1044381;28;20017;-74
2020/12/07 00:18:56;;;;;;;8.63;3.90;;;18.60;46.60;;;;;;1040920;28;20087;-74
2020/12/07 00:19:28;;;;;;;9.00;4.00;;;18.60;46.80;;;;;;1036288;28;20037;-74
2020/12/07 00:19:59;;;;;;;9.55;4.07;;;18.60;46.90;;;;;;1033741;28;20018;-74
2020/12/07 00:20:31;;;;;;;7.00;3.80;;;18.60;47.60;;;;;;1034649;28;20034;-74
2020/12/07 00:21:07;;;;;;;7.90;3.85;;;18.50;47.00;;;;;;1040935;28;20025;-74
2020/12/07 00:21:42;;;;;;;7.55;3.72;;;18.50;47.00;;;;;;1040294;28;20025;-74
2020/12/07 00:22:19;;;;;;;6.97;3.80;;;18.50;47.10;;;;;;1040784;28;20431;-72
2020/12/07 00:22:51;;;;;;;7.88;3.67;;;18.50;47.00;;;;;;1037602;28;20491;-73
2020/12/07 00:23:22;;;;;;;7.13;3.80;;;18.40;47.10;;;;;;1038731;28;20022;-74
2020/12/07 00:23:53;;;;;;;7.97;4.15;;;18.40;47.20;;;;;;1036796;28;20080;-74
2020/12/07 00:24:25;;;;;;;9.43;4.03;;;18.40;47.20;;;;;;1038704;28;20029;-74
2020/12/07 00:24:58;;;;;;;8.57;4.05;;;18.40;47.20;;;;;;1035592;28;20498;-74
2020/12/07 00:25:29;;;;;;;8.23;3.90;;;18.40;47.10;;;;;;1034718;28;20121;-73
2020/12/07 00:26:01;;;;;;;8.55;3.70;;;18.30;47.20;;;;;;1039417;28;20160;-73
2020/12/07 00:26:32;;;;;;;8.35;3.88;;;18.30;47.20;;;;;;1037484;28;20477;-72
2020/12/07 00:27:04;;;;;;;8.00;3.63;;;18.30;47.30;;;;;;1037556;28;20035;-72
2020/12/07 00:27:36;;;;;;;8.52;3.75;;;18.30;47.60;;;;;;1037803;28;20104;-72
2020/12/07 00:28:07;;;;;;;7.18;3.65;;;18.30;47.60;;;;;;1038380;28;20045;-74
2020/12/07 00:28:39;;;;;;;8.27;3.60;;;18.30;47.70;;;;;;1038927;28;20025;-75
2020/12/07 00:29:10;;;;;;;7.57;3.95;;;18.30;47.80;;;;;;1035772;28;20022;-74
2020/12/07 00:29:42;;;;;;;7.45;3.85;;;18.30;47.70;;;;;;1032680;28;20019;-74
2020/12/07 00:30:13;;;;;;;10.25;4.22;;;18.30;47.80;;;;;;1027413;28;20030;-73
2020/12/07 00:30:46;;;;;;;6.95;3.58;;;18.30;47.70;;;;;;1029167;28;20429;-74
2020/12/07 00:31:18;;;;;;;9.32;3.90;;;18.20;47.70;;;;;;1033501;28;20127;-74
2020/12/07 00:31:49;;;;;;;8.35;3.88;;;18.20;48.20;;;;;;1035705;28;20022;-74
2020/12/07 00:32:22;;;;;;;10.30;4.15;;;18.20;47.50;;;;;;1037206;28;20029;-74
2020/12/07 00:32:53;;;;;;;7.72;3.70;;;18.20;47.50;;;;;;1036861;28;20022;-74
2020/12/07 00:33:25;;;;;;;7.68;3.80;;;18.20;47.50;;;;;;1036921;28;20414;-74
2020/12/07 00:33:59;;;;;;;7.78;4.22;;;18.20;47.50;;;;;;1037102;28;20419;-74
2020/12/07 00:34:30;;;;;;;8.68;3.85;;;18.20;47.60;;;;;;1039912;28;20112;-74
2020/12/07 00:35:02;;;;;;;7.50;3.83;;;18.20;47.80;;;;;;1036837;28;20014;-74
2020/12/07 00:35:34;;;;;;;8.00;3.58;;;18.20;47.90;;;;;;1036888;28;20020;-74
2020/12/07 00:36:05;;;;;;;7.15;3.88;;;18.10;48.00;;;;;;1039554;28;20029;-74
2020/12/07 00:36:41;;;;;;;7.53;4.10;;;18.10;47.90;;;;;;1040877;28;20017;-74
2020/12/07 00:37:13;;;;;;;7.18;3.80;;;18.10;48.00;;;;;;1039305;28;20065;-75
2020/12/07 00:37:45;;;;;;;7.82;3.97;;;18.10;48.00;;;;;;1033932;28;20564;-74
2020/12/07 00:38:16;;;;;;;8.43;4.05;;;18.10;48.00;;;;;;1036884;28;20380;-74
2020/12/07 00:38:48;;;;;;;8.45;4.50;;;18.10;48.10;;;;;;1032918;28;20088;-74
2020/12/07 00:39:19;;;;;;;8.10;4.20;;;18.00;48.00;;;;;;1032895;28;20038;-74
2020/12/07 00:39:51;;;;;;;11.90;4.32;;;18.00;48.20;;;;;;1036722;28;20024;-74
2020/12/07 00:40:23;;;;;;;7.85;4.20;;;18.00;48.40;;;;;;1037052;28;20145;-74
2020/12/07 00:40:54;;;;;;;9.55;4.53;;;18.00;48.50;;;;;;1040631;28;20022;-74
2020/12/07 00:41:25;;;;;;;7.15;4.20;;;18.00;48.60;;;;;;1034350;28;20034;-74
2020/12/07 00:41:57;;;;;;;8.77;4.55;;;17.90;48.60;;;;;;1040989;28;20013;-74
2020/12/07 00:42:29;;;;;;;7.82;4.07;;;17.90;48.60;;;;;;1040068;28;20017;-74
2020/12/07 00:43:00;;;;;;;8.30;4.10;;;17.90;48.90;;;;;;1032226;28;20043;-74
2020/12/07 00:43:32;;;;;;;11.50;4.50;;;17.90;48.90;;;;;;1039110;28;20088;-74
2020/12/07 00:44:03;;;;;;;9.05;4.60;;;17.80;48.70;;;;;;1035647;28;20468;-74
2020/12/07 00:44:35;;;;;;;7.93;4.15;;;17.90;49.00;;;;;;1035072;28;20026;-74
2020/12/07 00:45:07;;;;;;;7.80;4.63;;;17.80;49.00;;;;;;1038937;28;20026;-74
2020/12/07 00:45:38;;;;;;;8.57;4.20;;;17.80;49.00;;;;;;1036806;28;20010;-74
2020/12/07 00:46:10;;;;;;;8.00;3.92;;;17.80;49.00;;;;;;1037109;28;20056;-73
2020/12/07 00:46:41;;;;;;;10.90;4.28;;;17.80;49.10;;;;;;1037219;28;20057;-74
2020/12/07 00:47:13;;;;;;;8.30;4.47;;;17.80;49.20;;;;;;1038965;28;20024;-73
2020/12/07 00:47:44;;;;;;;10.38;4.30;;;17.80;49.20;;;;;;1040512;28;20045;-73
2020/12/07 00:48:16;;;;;;;10.90;4.40;;;17.70;49.30;;;;;;1041241;28;20045;-74
2020/12/07 00:48:47;;;;;;;11.98;4.25;;;17.70;49.20;;;;;;1040143;28;20080;-74
2020/12/07 00:49:18;;;;;;;7.63;4.40;;;17.70;49.30;;;;;;1036944;28;20438;-74
2020/12/07 00:49:50;;;;;;;6.90;4.32;;;17.70;49.20;;;;;;1036755;28;20080;-74
2020/12/07 00:50:21;;;;;;;7.32;4.60;;;17.60;49.10;;;;;;1032702;28;20508;-73
2020/12/07 00:50:53;;;;;;;7.95;4.97;;;17.60;49.10;;;;;;1033194;28;20097;-74
2020/12/07 00:51:24;;;;;;;9.88;4.93;;;17.60;49.20;;;;;;1037185;28;20021;-74
2020/12/07 00:51:56;;;;;;;8.75;5.32;;;17.60;49.20;;;;;;1040929;28;20013;-73
2020/12/07 00:52:27;;;;;;;11.63;5.80;;;17.60;49.30;;;;;;1038044;28;20487;-73
2020/12/07 00:52:58;;;;;;;11.75;6.30;;;17.60;49.40;;;;;;1041388;28;20021;-74
2020/12/07 00:53:30;;;;;;;10.35;5.38;;;17.50;49.50;;;;;;1040825;28;20025;-74
2020/12/07 00:54:01;;;;;;;10.15;5.38;;;17.50;49.60;;;;;;1040857;28;20071;-73
2020/12/07 00:54:33;;;;;;;8.07;4.60;;;17.50;49.60;;;;;;1036661;28;20022;-73
2020/12/07 00:55:05;;;;;;;9.90;4.00;;;17.40;49.70;;;;;;1033026;28;20021;-74
2020/12/07 00:55:37;;;;;;;11.18;4.35;;;17.40;49.70;;;;;;1033376;28;20379;-74
2020/12/07 00:56:13;;;;;;;8.70;4.20;;;17.30;49.70;;;;;;1036794;28;20411;-72
2020/12/07 00:56:44;;;;;;;9.10;4.07;;;17.30;49.90;;;;;;1036452;28;20483;-73
2020/12/07 00:57:16;;;;;;;8.15;3.80;;;17.20;50.00;;;;;;1039504;28;20022;-72
2020/12/07 00:57:47;;;;;;;7.35;3.92;;;17.10;50.10;;;;;;1037097;28;20026;-72
2020/12/07 00:58:18;;;;;;;11.32;4.07;;;17.00;50.00;;;;;;1039256;28;20052;-73
2020/12/07 00:58:50;;;;;;;8.40;4.13;;;16.90;50.00;;;;;;1039257;28;20117;-72
2020/12/07 00:59:22;;;;;;;9.38;4.45;;;16.80;50.90;;;;;;1039827;28;20039;-73
2020/12/07 00:59:53;;;;;;;8.77;4.40;;;16.80;50.50;;;;;;1039044;28;20033;-72
2020/12/07 01:00:25;;;;;;;9.07;4.25;;;16.70;50.70;;;;;;1038153;28;20033;-72
2020/12/07 01:00:57;;;;;;;11.23;4.20;;;16.60;50.90;;;;;;1038969;28;20348;-72
2020/12/07 01:01:29;;;;;;;7.40;3.83;;;16.60;51.20;;;;;;1040799;28;20026;-72
2020/12/07 01:02:01;;;;;;;10.20;4.07;;;16.60;51.30;;;;;;1038287;28;20109;-71
2020/12/07 01:02:33;;;;;;;7.78;4.13;;;16.60;51.30;;;;;;1040825;28;20406;-73
2020/12/07 01:03:05;;;;;;;10.07;4.25;;;16.60;51.40;;;;;;1040281;28;20364;-72
2020/12/07 01:03:36;;;;;;;10.50;4.10;;;16.50;51.40;;;;;;1040888;28;20028;-72
2020/12/07 01:04:08;;;;;;;7.88;3.72;;;16.50;51.60;;;;;;1040839;28;20033;-71
2020/12/07 01:04:39;;;;;;;6.35;3.50;;;16.50;51.60;;;;;;1040086;28;20022;-72
2020/12/07 01:05:11;;;;;;;10.55;4.30;;;16.50;51.70;;;;;;1034044;28;20014;-72
2020/12/07 01:05:42;;;;;;;7.72;3.60;;;16.50;51.70;;;;;;1032597;28;20102;-71
2020/12/07 01:06:14;;;;;;;8.77;4.00;;;16.40;51.80;;;;;;1033121;28;20061;-74
2020/12/07 01:06:45;;;;;;;9.50;3.95;;;16.50;51.90;;;;;;1035865;28;20026;-71
2020/12/07 01:07:17;;;;;;;9.52;4.25;;;16.40;52.10;;;;;;1036493;28;20514;-73
2020/12/07 01:07:48;;;;;;;9.35;3.78;;;16.40;52.20;;;;;;1037351;28;20452;-71
2020/12/07 01:08:21;;;;;;;8.05;3.60;;;16.30;52.30;;;;;;1036836;28;20360;-73
2020/12/07 01:08:53;;;;;;;8.05;3.83;;;16.30;52.50;;;;;;1036813;28;20040;-72
2020/12/07 01:09:24;;;;;;;6.50;3.60;;;16.30;52.60;;;;;;1037041;28;20105;-72
2020/12/07 01:09:56;;;;;;;9.05;3.95;;;16.30;52.80;;;;;;1036697;28;20101;-72
2020/12/07 01:10:27;;;;;;;7.75;3.55;;;16.20;52.90;;;;;;1039273;28;20451;-72
2020/12/07 01:10:59;;;;;;;7.78;3.83;;;16.20;53.10;;;;;;1040800;28;20037;-73
2020/12/07 01:11:30;;;;;;;8.25;3.90;;;16.20;53.30;;;;;;1038794;28;20045;-72
2020/12/07 01:12:02;;;;;;;6.88;3.75;;;16.20;53.40;;;;;;1040337;28;20447;-72
2020/12/07 01:12:34;;;;;;;8.55;3.88;;;16.10;53.40;;;;;;1040966;28;20060;-72
2020/12/07 01:13:05;;;;;;;7.45;3.90;;;16.10;53.60;;;;;;1040045;28;20120;-72
2020/12/07 01:13:38;;;;;;;7.88;3.80;;;16.10;53.70;;;;;;1039869;28;20367;-72
2020/12/07 01:14:14;;;;;;;9.90;3.67;;;16.10;53.80;;;;;;1040846;28;20013;-73
2020/12/07 01:14:46;;;;;;;7.45;3.50;;;16.10;53.90;;;;;;1039881;28;20037;-72
2020/12/07 01:15:17;;;;;;;7.47;4.00;;;16.00;54.10;;;;;;1039021;28;20038;-72
2020/12/07 01:15:50;;;;;;;7.68;3.80;;;16.00;54.40;;;;;;1040381;28;20112;-72
2020/12/07 01:16:22;;;;;;;8.40;3.72;;;16.00;54.40;;;;;;1040270;28;20029;-72
2020/12/07 01:16:54;;;;;;;6.32;3.50;;;16.00;54.40;;;;;;1036588;28;20120;-72
2020/12/07 01:17:26;;;;;;;7.65;3.72;;;15.90;54.50;;;;;;1035546;28;20034;-73
2020/12/07 01:17:57;;;;;;;7.75;3.55;;;16.00;54.60;;;;;;1039723;28;20025;-73
2020/12/07 01:18:29;;;;;;;9.60;3.83;;;15.90;54.70;;;;;;1040706;28;20043;-72
2020/12/07 01:19:00;;;;;;;7.55;3.42;;;15.90;55.00;;;;;;1039095;28;20034;-72
2020/12/07 01:19:32;;;;;;;8.48;3.40;;;15.90;55.00;;;;;;1038157;28;20032;-73
2020/12/07 01:20:03;;;;;;;6.95;3.50;;;15.80;55.10;;;;;;1039982;28;20021;-72
2020/12/07 01:20:35;;;;;;;8.25;3.58;;;15.80;55.20;;;;;;1039737;28;20021;-72
2020/12/07 01:21:08;;;;;;;6.45;3.55;;;15.80;55.30;;;;;;1040813;28;20057;-73
2020/12/07 01:21:40;;;;;;;7.40;3.53;;;15.70;55.40;;;;;;1037403;28;20022;-73
2020/12/07 01:22:12;;;;;;;7.13;3.72;;;15.70;55.40;;;;;;1037676;28;20064;-74
2020/12/07 01:22:43;;;;;;;7.20;3.28;;;15.70;55.50;;;;;;1032531;28;20369;-73
2020/12/07 01:23:14;;;;;;;7.20;3.50;;;15.70;55.50;;;;;;1033464;28;20460;-73
2020/12/07 01:23:46;;;;;;;7.30;3.30;;;15.70;55.50;;;;;;1034006;28;20441;-72
2020/12/07 01:24:17;;;;;;;9.60;3.50;;;15.60;55.50;;;;;;1035352;28;20109;-72
2020/12/07 01:24:49;;;;;;;7.90;3.33;;;15.60;55.50;;;;;;1035566;28;20060;-72
2020/12/07 01:25:20;;;;;;;7.68;3.20;;;15.60;55.50;;;;;;1036197;28;20029;-74
2020/12/07 01:25:52;;;;;;;9.57;3.33;;;15.60;55.60;;;;;;1039113;28;20018;-72
2020/12/07 01:26:23;;;;;;;6.13;3.35;;;15.60;55.60;;;;;;1036539;28;20022;-72
2020/12/07 01:26:55;;;;;;;7.22;3.30;;;15.60;55.60;;;;;;1037041;28;20450;-72
2020/12/07 01:27:26;;;;;;;6.88;3.70;;;15.60;55.60;;;;;;1040844;28;20017;-73
2020/12/07 01:27:57;;;;;;;6.50;3.47;;;15.60;55.60;;;;;;1040815;28;20096;-73
2020/12/07 01:28:29;;;;;;;9.27;3.80;;;15.60;55.60;;;;;;1041010;28;20344;-73
2020/12/07 01:29:02;;;;;;;10.48;3.78;;;15.60;55.70;;;;;;1041018;28;20014;-73
2020/12/07 01:29:34;;;;;;;7.50;3.47;;;15.50;55.80;;;;;;1037086;28;20106;-72
2020/12/07 01:30:06;;;;;;;8.40;3.55;;;15.50;55.80;;;;;;1037975;28;20451;-72
2020/12/07 01:30:37;;;;;;;9.10;3.50;;;15.40;55.90;;;;;;1037809;28;20033;-73
2020/12/07 01:31:09;;;;;;;8.05;3.70;;;15.40;56.10;;;;;;1038895;28;20028;-72
2020/12/07 01:31:40;;;;;;;7.18;3.30;;;15.40;56.10;;;;;;1037977;28;20045;-72
2020/12/07 01:32:12;;;;;;;7.45;3.33;;;15.30;56.20;;;;;;1039984;28;20089;-72
2020/12/07 01:32:43;;;;;;;7.80;3.50;;;15.30;56.30;;;;;;1039588;28;20033;-72
2020/12/07 01:33:15;;;;;;;8.98;3.75;;;15.20;56.30;;;;;;1033573;28;20026;-72
2020/12/07 01:33:46;;;;;;;6.50;3.55;;;15.20;56.40;;;;;;1035427;28;20361;-72
2020/12/07 01:34:18;;;;;;;8.93;3.60;;;15.20;56.60;;;;;;1036436;28;20053;-72
2020/12/07 01:34:49;;;;;;;7.47;3.50;;;15.10;56.60;;;;;;1039714;28;20406;-71
2020/12/07 01:35:21;;;;;;;7.65;3.47;;;15.20;56.60;;;;;;1040962;28;20060;-72
2020/12/07 01:35:52;;;;;;;6.97;3.42;;;15.20;56.60;;;;;;1040706;28;20083;-73
2020/12/07 01:36:24;;;;;;;7.40;3.40;;;15.20;56.50;;;;;;1040767;28;20014;-72
2020/12/07 01:36:56;;;;;;;8.13;3.60;;;15.20;56.60;;;;;;1039649;28;20018;-73
2020/12/07 01:37:27;;;;;;;7.20;3.50;;;15.10;56.60;;;;;;1037232;28;20202;-75
2020/12/07 01:37:59;;;;;;;6.78;3.38;;;15.10;56.70;;;;;;1038455;28;20428;-73
2020/12/07 01:38:30;;;;;;;6.47;3.40;;;15.10;56.80;;;;;;1039389;28;20031;-73
2020/12/07 01:39:02;;;;;;;6.60;3.80;;;15.00;56.80;;;;;;1040683;28;20021;-73
2020/12/07 01:39:33;;;;;;;6.75;3.70;;;15.10;56.80;;;;;;1038912;28;20100;-74
2020/12/07 01:40:05;;;;;;;7.35;3.50;;;15.00;56.80;;;;;;1035060;28;20022;-74
2020/12/07 01:40:37;;;;;;;6.50;3.40;;;15.00;57.00;;;;;;1038624;28;20021;-74
2020/12/07 01:41:09;;;;;;;8.38;3.60;;;15.00;56.90;;;;;;1038130;28;20053;-74
2020/12/07 01:41:40;;;;;;;8.13;3.75;;;15.00;57.00;;;;;;1039471;28;20068;-74
2020/12/07 01:42:12;;;;;;;7.43;3.50;;;15.00;56.80;;;;;;1036556;28;20092;-74
2020/12/07 01:42:43;;;;;;;7.28;3.30;;;15.00;56.80;;;;;;1035082;28;20038;-74
2020/12/07 01:43:14;;;;;;;9.88;3.20;;;15.00;56.80;;;;;;1029150;28;21481;-74
2020/12/07 01:43:46;;;;;;;7.18;3.25;;;15.00;56.70;;;;;;1033945;28;20030;-72
2020/12/07 01:44:18;;;;;;;7.47;3.45;;;15.00;56.70;;;;;;1035093;28;20019;-74
2020/12/07 01:44:49;;;;;;;7.18;3.50;;;15.00;56.70;;;;;;1039403;28;20022;-74
2020/12/07 01:45:21;;;;;;;7.13;3.58;;;15.00;56.80;;;;;;1036280;28;20100;-74
2020/12/07 01:45:52;;;;;;;8.07;3.53;;;15.00;56.80;;;;;;1038303;28;20368;-74
2020/12/07 01:46:24;;;;;;;8.63;3.90;;;14.90;56.80;;;;;;1036900;28;20018;-74
2020/12/07 01:46:56;;;;;;;6.45;3.65;;;14.90;56.70;;;;;;1040635;28;20412;-74
2020/12/07 01:47:29;;;;;;;7.97;3.85;;;14.90;56.70;;;;;;1038555;28;20041;-75
2020/12/07 01:48:00;;;;;;;8.48;3.53;;;14.90;56.70;;;;;;1039501;28;20017;-73
2020/12/07 01:48:33;;;;;;;6.70;3.67;;;14.90;56.70;;;;;;1037823;28;20025;-72
2020/12/07 01:49:05;;;;;;;8.15;3.80;;;14.90;56.80;;;;;;1039145;28;20067;-73
2020/12/07 01:49:36;;;;;;;7.93;3.50;;;14.90;56.70;;;;;;1040214;28;20033;-74
2020/12/07 01:50:08;;;;;;;7.18;3.70;;;14.90;56.80;;;;;;1037317;28;20029;-74
2020/12/07 01:50:41;;;;;;;8.85;4.07;;;14.80;56.70;;;;;;1037490;28;20498;-73
2020/12/07 01:51:14;;;;;;;8.60;3.70;;;14.90;56.90;;;;;;1033189;28;20026;-74
2020/12/07 01:51:47;;;;;;;7.38;3.70;;;14.80;57.00;;;;;;1032358;28;20094;-72
2020/12/07 01:52:21;;;;;;;8.98;4.05;;;14.70;57.20;;;;;;1034977;28;20037;-74
2020/12/07 01:52:52;;;;;;;7.18;3.53;;;14.60;57.40;;;;;;1036283;28;20018;-74
2020/12/07 01:53:24;;;;;;;9.27;3.65;;;14.60;57.60;;;;;;1033546;28;20025;-73
2020/12/07 01:53:55;;;;;;;8.07;3.75;;;14.50;57.80;;;;;;1033621;28;20034;-72
2020/12/07 01:54:27;;;;;;;7.63;3.45;;;14.40;57.90;;;;;;1030556;28;20037;-72
2020/12/07 01:54:59;;;;;;;8.93;3.92;;;14.40;58.00;;;;;;1034791;28;20022;-72
2020/12/07 01:55:31;;;;;;;7.85;3.50;;;14.40;58.20;;;;;;1037217;28;20029;-72
2020/12/07 01:56:03;;;;;;;8.85;3.80;;;14.30;58.30;;;;;;1036266;28;20526;-72
2020/12/07 01:56:38;;;;;;;7.00;3.35;;;14.30;58.50;;;;;;1036596;28;20474;-72
2020/12/07 01:57:09;;;;;;;8.18;3.72;;;14.20;58.60;;;;;;1038957;28;20018;-73
2020/12/07 01:57:41;;;;;;;9.48;3.28;;;14.20;58.80;;;;;;1040719;28;20025;-72
2020/12/07 01:58:12;;;;;;;9.10;3.60;;;14.10;58.80;;;;;;1040866;28;20028;-73
2020/12/07 01:58:43;;;;;;;7.10;3.47;;;14.10;58.90;;;;;;1038367;28;20060;-74
2020/12/07 01:59:15;;;;;;;7.65;3.30;;;14.10;58.90;;;;;;1037421;28;20121;-74
2020/12/07 01:59:46;;;;;;;6.68;3.47;;;14.10;58.90;;;;;;1037187;28;20022;-74
2020/12/07 02:00:18;;;;;;;9.63;3.72;;;14.10;58.90;;;;;;1039604;28;20018;-74
2020/12/07 02:00:49;;;;;;;8.43;3.53;;;14.10;59.00;;;;;;1040807;28;20056;-73
2020/12/07 02:01:21;;;;;;;6.40;3.30;;;14.10;59.00;;;;;;1040544;28;20021;-73
2020/12/07 02:01:52;;;;;;;9.32;3.40;;;14.00;59.10;;;;;;1038992;28;20010;-75
2020/12/07 02:02:24;;;;;;;7.07;3.60;;;14.00;59.20;;;;;;1040676;28;20048;-75
2020/12/07 02:02:55;;;;;;;8.70;3.30;;;14.00;59.30;;;;;;1040723;28;20420;-74
2020/12/07 02:03:27;;;;;;;6.85;3.25;;;13.90;59.40;;;;;;1039940;28;20006;-74
2020/12/07 02:03:58;;;;;;;9.20;3.50;;;13.90;60.00;;;;;;1038839;28;20021;-74
2020/12/07 02:04:31;;;;;;;6.65;3.35;;;13.90;59.50;;;;;;1039539;28;20526;-73
2020/12/07 02:05:02;;;;;;;8.02;3.38;;;13.80;59.60;;;;;;1037335;28;20038;-73
2020/12/07 02:05:35;;;;;;;8.50;4.13;;;13.80;59.70;;;;;;1036589;28;20446;-73
2020/12/07 02:06:06;;;;;;;8.18;3.80;;;13.80;59.90;;;;;;1036599;28;20006;-73
2020/12/07 02:06:38;;;;;;;9.88;3.60;;;13.70;59.80;;;;;;1038951;28;20101;-73
2020/12/07 02:07:20;;;;;;;9.23;3.78;;;13.80;59.90;;;;;;1039440;28;20045;-74
2020/12/07 02:08:12;;;;;;;9.57;4.32;;;13.80;59.90;;;;;;1039432;28;20020;-74
2020/12/07 02:08:48;;;;;;;8.85;4.03;;;13.80;59.70;;;;;;1040514;28;20363;-73
2020/12/07 02:09:29;;;;;;;9.18;3.45;;;13.80;59.60;;;;;;1038366;28;20010;-73
2020/12/07 02:10:00;;;;;;;8.02;3.72;;;13.80;59.50;;;;;;1036532;28;20022;-73
2020/12/07 02:10:31;;;;;;;9.68;3.70;;;13.80;59.50;;;;;;1036584;28;20140;-74
2020/12/07 02:11:03;;;;;;;9.35;3.90;;;13.80;59.60;;;;;;1036572;28;20076;-74
2020/12/07 02:11:34;;;;;;;8.50;3.65;;;13.70;59.70;;;;;;1036495;28;20014;-74
2020/12/07 02:12:06;;;;;;;9.93;3.90;;;13.70;59.90;;;;;;1036773;28;20017;-74
2020/12/07 02:12:37;;;;;;;6.90;3.50;;;13.70;60.00;;;;;;1036435;28;20046;-74
2020/12/07 02:13:09;;;;;;;8.77;3.80;;;13.60;60.10;;;;;;1036644;28;20014;-74
2020/12/07 02:13:40;;;;;;;7.30;3.60;;;13.60;60.30;;;;;;1036464;28;20024;-73
2020/12/07 02:14:12;;;;;;;9.00;3.42;;;13.50;60.40;;;;;;1033305;28;20011;-74
2020/12/07 02:14:43;;;;;;;9.15;3.90;;;13.50;60.60;;;;;;1037249;28;20020;-74
2020/12/07 02:15:15;;;;;;;8.85;3.70;;;13.50;60.70;;;;;;1038093;28;20041;-74
2020/12/07 02:15:46;;;;;;;8.38;3.85;;;13.40;60.80;;;;;;1036575;28;20355;-73
2020/12/07 02:16:18;;;;;;;6.95;3.50;;;13.40;60.90;;;;;;1037284;28;20014;-74
2020/12/07 02:16:50;;;;;;;7.45;3.70;;;13.40;61.00;;;;;;1036838;28;20049;-74
2020/12/07 02:17:21;;;;;;;8.13;3.78;;;13.40;61.00;;;;;;1036545;28;20665;-74
2020/12/07 02:17:52;;;;;;;8.25;3.67;;;13.40;61.10;;;;;;1040572;28;20017;-73
2020/12/07 02:18:24;;;;;;;8.55;3.70;;;13.40;61.20;;;;;;1037975;28;20022;-74
2020/12/07 02:18:58;;;;;;;6.03;3.42;;;13.30;61.20;;;;;;1037787;28;20391;-73
2020/12/07 02:19:30;;;;;;;9.10;3.70;;;13.30;61.30;;;;;;1036771;28;20029;-73
2020/12/07 02:20:02;;;;;;;7.18;3.50;;;13.30;61.30;;;;;;1037888;28;20017;-73
2020/12/07 02:20:34;;;;;;;7.93;3.78;;;13.30;61.30;;;;;;1038505;28;20022;-73
2020/12/07 02:21:06;;;;;;;9.68;3.88;;;13.20;61.30;;;;;;1036415;28;20013;-73
2020/12/07 02:21:37;;;;;;;7.90;3.72;;;13.20;61.30;;;;;;1033541;28;20084;-73
2020/12/07 02:22:09;;;;;;;6.78;3.72;;;13.20;61.20;;;;;;1033491;28;20019;-73
2020/12/07 02:22:40;;;;;;;7.95;3.83;;;13.20;61.30;;;;;;1039136;28;20026;-73
2020/12/07 02:23:12;;;;;;;8.73;3.90;;;13.20;61.30;;;;;;1039246;28;20018;-73
2020/12/07 02:23:43;;;;;;;10.02;3.65;;;13.20;61.20;;;;;;1039332;28;20076;-73
2020/12/07 02:24:14;;;;;;;9.30;3.95;;;13.20;61.30;;;;;;1037803;28;20067;-72
2020/12/07 02:24:46;;;;;;;7.85;3.70;;;13.20;61.30;;;;;;1038173;28;20108;-73
2020/12/07 02:25:21;;;;;;;10.35;4.00;;;13.10;61.30;;;;;;1039430;28;20053;-73
2020/12/07 02:25:53;;;;;;;7.22;3.67;;;13.10;61.30;;;;;;1037245;28;20189;-73
2020/12/07 02:26:24;;;;;;;9.15;3.90;;;13.10;61.30;;;;;;1036693;28;20033;-73
2020/12/07 02:26:56;;;;;;;8.63;4.20;;;13.10;61.40;;;;;;1039081;28;20414;-73
2020/12/07 02:27:27;;;;;;;9.77;4.00;;;13.10;61.40;;;;;;1037447;28;20024;-73
2020/12/07 02:27:59;;;;;;;8.90;4.57;;;13.10;61.50;;;;;;1037465;28;20045;-73
2020/12/07 02:28:30;;;;;;;9.55;4.03;;;13.10;61.60;;;;;;1040481;28;20070;-73
2020/12/07 02:29:02;;;;;;;9.00;4.40;;;13.10;61.60;;;;;;1034094;28;20034;-73
2020/12/07 02:29:33;;;;;;;9.57;4.00;;;13.10;61.60;;;;;;1032961;28;20018;-73
2020/12/07 02:30:04;;;;;;;8.27;4.03;;;13.10;61.60;;;;;;1034334;28;20045;-73
2020/12/07 02:30:36;;;;;;;10.15;3.83;;;13.10;61.60;;;;;;1034139;28;20069;-73
2020/12/07 02:31:07;;;;;;;12.90;3.97;;;13.10;61.60;;;;;;1041205;28;20048;-73
2020/12/07 02:31:39;;;;;;;8.18;4.18;;;13.10;61.60;;;;;;1038410;28;20017;-73
2020/12/07 02:32:15;;;;;;;11.05;3.92;;;13.10;62.30;;;;;;1039578;28;20022;-73
2020/12/07 02:32:48;;;;;;;6.43;3.25;;;13.10;61.60;;;;;;1037177;28;20356;-73
2020/12/07 02:33:20;;;;;;;9.60;3.80;;;13.10;61.60;;;;;;1037362;28;20411;-73
2020/12/07 02:33:51;;;;;;;10.60;3.95;;;13.00;61.60;;;;;;1037022;28;20097;-73
2020/12/07 02:34:22;;;;;;;8.90;3.80;;;13.10;61.70;;;;;;1037236;28;20034;-71
2020/12/07 02:34:54;;;;;;;10.38;4.18;;;13.10;61.80;;;;;;1038397;28;20022;-72
2020/12/07 02:35:26;;;;;;;9.95;3.85;;;13.10;61.70;;;;;;1037838;28;20462;-74
2020/12/07 02:35:57;;;;;;;8.05;3.30;;;13.10;61.60;;;;;;1038265;28;20022;-74
2020/12/07 02:36:29;;;;;;;9.18;3.90;;;13.20;61.60;;;;;;1037688;28;20018;-74
2020/12/07 02:37:00;;;;;;;9.57;4.10;;;13.20;61.50;;;;;;1038535;28;20014;-74
2020/12/07 02:37:31;;;;;;;11.90;4.18;;;13.10;61.50;;;;;;1043519;28;20026;-74
2020/12/07 02:38:03;;;;;;;6.93;3.70;;;13.10;61.60;;;;;;1039178;28;20699;-74
2020/12/07 02:38:34;;;;;;;7.80;3.70;;;13.10;61.60;;;;;;1039793;28;20120;-74
2020/12/07 02:39:06;;;;;;;7.78;3.60;;;13.10;61.80;;;;;;1039902;28;20490;-74
2020/12/07 02:39:38;;;;;;;7.18;3.65;;;13.00;61.70;;;;;;1032568;28;20418;-74
2020/12/07 02:40:10;;;;;;;5.93;3.30;;;13.00;61.80;;;;;;1033236;28;20102;-74
2020/12/07 02:40:42;;;;;;;7.30;3.67;;;13.00;61.80;;;;;;1038798;28;20113;-73
2020/12/07 02:41:13;;;;;;;8.32;3.70;;;13.00;61.80;;;;;;1039878;28;20049;-74
2020/12/07 02:41:45;;;;;;;10.07;3.90;;;13.00;62.50;;;;;;1036664;28;20455;-73
2020/12/07 02:42:16;;;;;;;7.55;3.53;;;13.10;61.90;;;;;;1038374;28;20053;-74
2020/12/07 02:42:48;;;;;;;7.35;3.60;;;13.10;61.80;;;;;;1039343;28;20515;-74
2020/12/07 02:43:19;;;;;;;9.43;3.75;;;13.10;61.80;;;;;;1038774;28;20473;-74
2020/12/07 02:43:51;;;;;;;9.10;3.70;;;13.10;61.80;;;;;;1037792;28;20020;-73
2020/12/07 02:44:22;;;;;;;6.30;3.53;;;13.00;61.70;;;;;;1039060;28;20096;-74
2020/12/07 02:44:53;;;;;;;8.30;3.45;;;13.10;61.80;;;;;;1037058;28;20025;-74
2020/12/07 02:45:25;;;;;;;11.05;4.18;;;13.10;61.80;;;;;;1037082;28;20052;-74
2020/12/07 02:45:56;;;;;;;8.02;3.92;;;13.00;61.80;;;;;;1036783;28;20041;-74